createdAt,value
2022-08-19T00:00:12.092Z,98890.25
2022-08-19T00:01:05.898Z,98888.08
2022-08-19T00:01:40.951Z,98889.90
2022-08-19T00:02:13.970Z,98889.58
2022-08-19T00:02:50.051Z,98888.77
2022-08-19T00:03:23.564Z,98888.48
2022-08-19T00:04:01.346Z,98887.31
2022-08-19T00:04:38.241Z,98889.40
2022-08-19T00:05:12.984Z,98884.54
2022-08-19T00:05:46.767Z,98884.05
2022-08-19T00:06:19.969Z,98883.79
2022-08-19T00:06:54.730Z,98883.47
2022-08-19T00:07:27.890Z,98884.85
2022-08-19T00:08:01.223Z,98883.36
2022-08-19T00:08:35.178Z,98878.39
2022-08-19T00:09:11.931Z,98880.04
2022-08-19T00:09:45.150Z,98881.17
2022-08-19T00:10:20.413Z,98882.67
2022-08-19T00:10:53.584Z,98884.68
2022-08-19T00:11:28.889Z,98885.22
2022-08-19T00:12:02.940Z,98883.44
2022-08-19T00:12:36.830Z,98884.23
2022-08-19T00:13:20.318Z,98884.60
2022-08-19T00:13:54.325Z,98887.70
2022-08-19T00:14:33.649Z,98887.27
2022-08-19T00:15:12.893Z,98884.65
2022-08-19T00:15:45.983Z,98888.38
2022-08-19T00:16:25.161Z,98889.95
2022-08-19T00:17:00.008Z,98890.11
2022-08-19T00:17:33.376Z,98891.11
2022-08-19T00:18:06.417Z,98892.84
2022-08-19T00:18:39.502Z,98889.73
2022-08-19T00:19:13.764Z,98891.29
2022-08-19T00:19:47.262Z,98891.77
2022-08-19T00:20:22.965Z,98889.84
2022-08-19T00:20:56.672Z,98891.22
2022-08-19T00:21:30.079Z,98885.50
2022-08-19T00:22:04.481Z,98890.45
2022-08-19T00:22:39.251Z,98884.64
2022-08-19T00:23:12.702Z,98882.94
2022-08-19T00:23:45.866Z,98880.80
2022-08-19T00:24:20.161Z,98882.35
2022-08-19T00:24:53.533Z,98878.94
2022-08-19T00:25:30.407Z,98883.52
2022-08-19T00:26:06.296Z,98882.94
2022-08-19T00:26:40.787Z,98882.02
2022-08-19T00:27:25.657Z,98883.42
2022-08-19T00:28:00.895Z,98884.33
2022-08-19T00:28:37.072Z,98884.14
2022-08-19T00:29:13.360Z,98884.98
2022-08-19T00:29:46.480Z,98881.99
2022-08-19T00:30:28.399Z,98885.67
2022-08-19T00:31:01.938Z,98884.31
2022-08-19T00:31:35.374Z,98886.95
2022-08-19T00:32:10.716Z,98886.88
2022-08-19T00:32:44.156Z,98886.39
2022-08-19T00:33:17.805Z,98887.20
2022-08-19T00:33:51.784Z,98887.02
2022-08-19T00:34:29.932Z,98887.81
2022-08-19T00:35:03.159Z,98887.01
2022-08-19T00:35:36.359Z,98887.20
2022-08-19T00:36:10.570Z,98886.89
2022-08-19T00:36:44.730Z,98888.59
2022-08-19T00:37:17.929Z,98890.50
2022-08-19T00:37:51.884Z,98888.27
2022-08-19T00:38:27.266Z,98889.97
2022-08-19T00:39:11.386Z,98891.89
2022-08-19T00:39:44.599Z,98896.30
2022-08-19T00:40:20.526Z,98897.20
2022-08-19T00:40:53.735Z,98898.11
2022-08-19T00:41:27.879Z,98896.34
2022-08-19T00:42:01.131Z,98898.31
2022-08-19T00:42:34.456Z,98898.69
2022-08-19T00:43:14.321Z,98898.73
2022-08-19T00:44:05.610Z,98899.95
2022-08-19T00:44:39.831Z,98899.90
2022-08-19T00:45:18.466Z,98901.48
2022-08-19T00:45:52.938Z,98904.08
2022-08-19T00:46:27.073Z,98901.88
2022-08-19T00:47:01.067Z,98901.63
2022-08-19T00:47:34.466Z,98900.49
2022-08-19T00:48:14.751Z,98901.60
2022-08-19T00:48:48.436Z,98903.53
2022-08-19T00:49:27.868Z,98903.48
2022-08-19T00:50:01.207Z,98901.67
2022-08-19T00:50:35.711Z,98905.80
2022-08-19T00:51:30.841Z,98901.73
2022-08-19T00:52:15.378Z,98901.61
2022-08-19T00:52:52.352Z,98902.36
2022-08-19T00:53:28.759Z,98894.28
2022-08-19T00:54:03.959Z,98894.17
2022-08-19T00:54:40.546Z,98893.48
2022-08-19T00:55:22.048Z,98892.73
2022-08-19T00:55:59.535Z,98892.88
2022-08-19T00:56:32.791Z,98891.54
2022-08-19T00:57:10.691Z,98892.35
2022-08-19T00:57:49.595Z,98894.05
2022-08-19T00:58:28.753Z,98893.41
2022-08-19T00:59:10.527Z,98894.05
2022-08-19T01:00:00.325Z,98895.78
2022-08-19T01:00:38.429Z,98894.16
2022-08-19T01:01:12.206Z,98897.23
2022-08-19T01:01:47.208Z,98891.26
2022-08-19T01:02:21.057Z,98894.13
2022-08-19T01:02:55.300Z,98890.94
2022-08-19T01:03:56.914Z,98892.68
2022-08-19T01:04:23.480Z,98888.45
2022-08-19T01:04:57.455Z,98887.05
2022-08-19T01:05:31.201Z,98886.52
2022-08-19T01:06:04.396Z,98885.77
2022-08-19T01:06:39.506Z,98884.48
2022-08-19T01:07:15.212Z,98883.48
2022-08-19T01:07:52.884Z,98882.59
2022-08-19T01:08:26.282Z,98879.88
2022-08-19T01:09:00.878Z,98881.21
2022-08-19T01:09:35.336Z,98878.98
2022-08-19T01:10:17.681Z,98882.27
2022-08-19T01:10:59.442Z,98878.11
2022-08-19T01:11:42.299Z,98877.88
2022-08-19T01:12:17.009Z,98877.08
2022-08-19T01:12:52.309Z,98880.73
2022-08-19T01:13:49.395Z,98878.52
2022-08-19T01:14:25.518Z,98877.76
2022-08-19T01:15:00.243Z,98878.76
2022-08-19T01:15:39.683Z,98881.70
2022-08-19T01:16:14.416Z,98880.41
2022-08-19T01:16:48.303Z,98882.87
2022-08-19T01:17:22.390Z,98886.77
2022-08-19T01:17:58.200Z,98884.63
2022-08-19T01:18:33.697Z,98885.38
2022-08-19T01:19:26.353Z,98889.91
2022-08-19T01:19:59.839Z,98889.60
2022-08-19T01:20:35.794Z,98887.89
2022-08-19T01:21:48.677Z,98891.86
2022-08-19T01:22:30.063Z,98891.05
2022-08-19T01:23:04.620Z,98892.67
2022-08-19T01:23:46.607Z,98895.38
2022-08-19T01:24:19.829Z,98892.11
2022-08-19T01:24:53.568Z,98894.71
2022-08-19T01:25:36.403Z,98894.41
2022-08-19T01:26:15.059Z,98892.73
2022-08-19T01:26:48.866Z,98891.87
2022-08-19T01:27:22.411Z,98893.19
2022-08-19T01:27:55.742Z,98894.09
2022-08-19T01:28:39.865Z,98890.88
2022-08-19T01:29:13.993Z,98888.91
2022-08-19T01:29:49.040Z,98892.27
2022-08-19T01:30:26.728Z,98888.13
2022-08-19T01:31:00.105Z,98889.39
2022-08-19T01:31:33.553Z,98883.21
2022-08-19T01:32:09.052Z,98882.27
2022-08-19T01:33:03.230Z,98886.46
2022-08-19T01:33:36.484Z,98885.02
2022-08-19T01:34:10.326Z,98887.20
2022-08-19T01:34:48.169Z,98886.57
2022-08-19T01:35:24.639Z,98888.33
2022-08-19T01:36:10.525Z,98882.20
2022-08-19T01:36:50.433Z,98884.70
2022-08-19T01:37:24.918Z,98885.81
2022-08-19T01:38:07.231Z,98884.42
2022-08-19T01:38:44.640Z,98886.06
2022-08-19T01:39:24.289Z,98887.90
2022-08-19T01:39:58.188Z,98887.41
2022-08-19T01:40:34.573Z,98883.95
2022-08-19T01:41:10.819Z,98888.56
2022-08-19T01:41:44.694Z,98890.58
2022-08-19T01:42:18.434Z,98890.68
2022-08-19T01:42:52.409Z,98892.06
2022-08-19T01:43:25.789Z,98890.14
2022-08-19T01:44:16.914Z,98888.77
2022-08-19T01:44:52.349Z,98891.63
2022-08-19T01:45:28.843Z,98894.28
2022-08-19T01:46:02.098Z,98893.58
2022-08-19T01:46:35.652Z,98895.66
2022-08-19T01:47:10.877Z,98892.08
2022-08-19T01:47:44.402Z,98894.16
2022-08-19T01:48:31.566Z,98893.19
2022-08-19T01:49:07.286Z,98894.02
2022-08-19T01:49:40.610Z,98890.57
2022-08-19T01:50:15.321Z,98895.41
2022-08-19T01:50:49.194Z,98891.67
2022-08-19T01:51:22.649Z,98891.89
2022-08-19T01:51:56.239Z,98890.14
2022-08-19T01:52:29.345Z,98894.83
2022-08-19T01:53:06.730Z,98894.50
2022-08-19T01:53:41.932Z,98893.36
2022-08-19T01:54:23.394Z,98895.17
2022-08-19T01:55:01.248Z,98891.69
2022-08-19T01:55:40.846Z,98892.65
2022-08-19T01:56:14.807Z,98893.23
2022-08-19T01:56:50.089Z,98894.17
2022-08-19T01:57:24.401Z,98891.88
2022-08-19T01:58:01.317Z,98894.45
2022-08-19T01:58:46.360Z,98895.63
2022-08-19T01:59:23.461Z,98896.63
2022-08-19T01:59:57.947Z,98896.26
2022-08-19T02:00:33.714Z,98895.35
2022-08-19T02:01:08.674Z,98896.36
2022-08-19T02:01:42.491Z,98896.79
2022-08-19T02:02:15.853Z,98892.47
2022-08-19T02:02:49.189Z,98889.92
2022-08-19T02:03:22.410Z,98891.15
2022-08-19T02:03:56.880Z,98890.83
2022-08-19T02:04:30.251Z,98887.52
2022-08-19T02:05:05.420Z,98889.34
2022-08-19T02:05:39.896Z,98889.92
2022-08-19T02:06:13.444Z,98888.90
2022-08-19T02:06:46.612Z,98890.96
2022-08-19T02:07:23.033Z,98889.05
2022-08-19T02:07:57.721Z,98888.19
2022-08-19T02:08:31.715Z,98888.75
2022-08-19T02:09:09.389Z,98889.16
2022-08-19T02:09:42.899Z,98888.95
2022-08-19T02:10:21.012Z,98886.61
2022-08-19T02:10:54.949Z,98886.87
2022-08-19T02:11:32.952Z,98885.16
2022-08-19T02:12:09.080Z,98881.55
2022-08-19T02:12:42.298Z,98883.16
2022-08-19T02:13:15.400Z,98883.90
2022-08-19T02:13:50.635Z,98883.53
2022-08-19T02:14:24.715Z,98883.09
2022-08-19T02:14:58.348Z,98879.88
2022-08-19T02:15:31.499Z,98880.23
2022-08-19T02:16:04.697Z,98881.79
2022-08-19T02:16:38.752Z,98881.55
2022-08-19T02:17:11.760Z,98879.48
2022-08-19T02:17:44.978Z,98877.35
2022-08-19T02:18:18.201Z,98878.09
2022-08-19T02:18:52.332Z,98879.68
2022-08-19T02:19:25.570Z,98875.89
2022-08-19T02:19:58.999Z,98873.92
2022-08-19T02:20:32.405Z,98874.13
2022-08-19T02:21:05.887Z,98869.73
2022-08-19T02:21:39.106Z,98873.55
2022-08-19T02:22:12.199Z,98871.05
2022-08-19T02:22:45.502Z,98871.40
2022-08-19T02:23:18.982Z,98869.06
2022-08-19T02:23:52.262Z,98869.68
2022-08-19T02:24:25.951Z,98870.42
2022-08-19T02:24:59.176Z,98871.37
2022-08-19T02:25:32.473Z,98871.64
2022-08-19T02:26:06.333Z,98873.61
2022-08-19T02:26:39.431Z,98871.90
2022-08-19T02:27:12.951Z,98872.31
2022-08-19T02:27:46.194Z,98871.35
2022-08-19T02:28:19.433Z,98871.28
2022-08-19T02:28:52.460Z,98870.54
2022-08-19T02:29:25.618Z,98873.08
2022-08-19T02:29:59.017Z,98874.48
2022-08-19T02:30:32.577Z,98874.31
2022-08-19T02:31:15.870Z,98870.38
2022-08-19T02:31:49.329Z,98873.51
2022-08-19T02:32:22.723Z,98871.68
2022-08-19T02:32:56.165Z,98869.07
2022-08-19T02:33:30.676Z,98866.32
2022-08-19T02:34:04.318Z,98865.09
2022-08-19T02:34:37.486Z,98868.16
2022-08-19T02:35:12.339Z,98868.58
2022-08-19T02:35:47.952Z,98864.06
2022-08-19T02:36:21.363Z,98866.09
2022-08-19T02:36:55.312Z,98868.85
2022-08-19T02:37:47.587Z,98866.14
2022-08-19T02:38:26.648Z,98869.42
2022-08-19T02:39:00.002Z,98869.94
2022-08-19T02:39:33.620Z,98870.94
2022-08-19T02:40:12.740Z,98868.79
2022-08-19T02:40:53.011Z,98870.77
2022-08-19T02:41:29.305Z,98872.52
2022-08-19T02:42:03.316Z,98872.94
2022-08-19T02:42:36.628Z,98874.38
2022-08-19T02:43:10.428Z,98873.85
2022-08-19T02:44:22.927Z,98876.13
2022-08-19T02:44:38.334Z,98876.43
2022-08-19T02:45:11.772Z,98876.75
2022-08-19T02:45:45.086Z,98878.88
2022-08-19T02:46:19.278Z,98877.15
2022-08-19T02:46:52.631Z,98881.19
2022-08-19T02:47:26.250Z,98877.50
2022-08-19T02:47:59.344Z,98880.33
2022-08-19T02:48:34.168Z,98881.12
2022-08-19T02:49:09.338Z,98882.14
2022-08-19T02:49:43.047Z,98881.41
2022-08-19T02:50:16.206Z,98882.27
2022-08-19T02:50:56.516Z,98883.73
2022-08-19T02:51:40.044Z,98883.21
2022-08-19T02:52:13.710Z,98881.62
2022-08-19T02:52:46.874Z,98882.61
2022-08-19T02:53:20.295Z,98882.20
2022-08-19T02:53:54.716Z,98878.73
2022-08-19T02:54:28.553Z,98879.00
2022-08-19T02:55:02.466Z,98879.38
2022-08-19T02:55:46.028Z,98880.48
2022-08-19T02:56:21.162Z,98881.98
2022-08-19T02:56:54.335Z,98879.09
2022-08-19T02:57:28.784Z,98878.08
2022-08-19T02:58:02.734Z,98877.92
2022-08-19T02:58:41.979Z,98878.66
2022-08-19T02:59:16.444Z,98877.06
2022-08-19T02:59:49.564Z,98879.42
2022-08-19T03:00:22.777Z,98877.34
2022-08-19T03:00:58.123Z,98880.13
2022-08-19T03:01:33.718Z,98876.99
2022-08-19T03:02:06.810Z,98878.80
2022-08-19T03:02:40.690Z,98877.52
2022-08-19T03:03:13.888Z,98879.29
2022-08-19T03:03:47.881Z,98880.29
2022-08-19T03:04:20.963Z,98880.88
2022-08-19T03:04:54.123Z,98882.52
2022-08-19T03:05:55.761Z,98881.02
2022-08-19T03:06:23.021Z,98877.88
2022-08-19T03:06:59.569Z,98877.83
2022-08-19T03:07:36.436Z,98878.43
2022-08-19T03:08:13.708Z,98878.33
2022-08-19T03:08:48.614Z,98877.52
2022-08-19T03:09:22.086Z,98873.80
2022-08-19T03:09:55.380Z,98874.80
2022-08-19T03:10:29.122Z,98872.41
2022-08-19T03:11:02.255Z,98871.73
2022-08-19T03:11:36.582Z,98870.34
2022-08-19T03:12:09.789Z,98874.01
2022-08-19T03:12:43.058Z,98868.42
2022-08-19T03:13:19.613Z,98872.09
2022-08-19T03:13:54.983Z,98872.78
2022-08-19T03:14:29.148Z,98873.52
2022-08-19T03:15:02.324Z,98876.83
2022-08-19T03:15:35.464Z,98877.30
2022-08-19T03:16:08.559Z,98873.80
2022-08-19T03:16:53.591Z,98878.51
2022-08-19T03:17:26.711Z,98881.65
2022-08-19T03:17:59.802Z,98882.34
2022-08-19T03:18:32.994Z,98882.83
2022-08-19T03:19:06.143Z,98884.98
2022-08-19T03:19:39.552Z,98884.73
2022-08-19T03:20:12.778Z,98886.89
2022-08-19T03:20:49.310Z,98884.91
2022-08-19T03:21:26.840Z,98886.84
2022-08-19T03:31:43.423Z,98887.94
2022-08-19T03:32:32.229Z,98883.75
2022-08-19T03:33:07.160Z,98885.50
2022-08-19T03:33:43.084Z,98885.94
2022-08-19T03:34:27.450Z,98887.29
2022-08-19T03:35:00.941Z,98884.31
2022-08-19T03:35:34.566Z,98884.57
2022-08-19T03:36:16.318Z,98887.19
2022-08-19T03:36:49.853Z,98886.27
2022-08-19T03:37:23.686Z,98888.09
2022-08-19T03:37:58.230Z,98886.81
2022-08-19T03:38:31.688Z,98888.11
2022-08-19T03:39:05.691Z,98886.85
2022-08-19T03:39:40.771Z,98887.11
2022-08-19T03:40:16.710Z,98888.17
2022-08-19T03:40:50.196Z,98886.84
2022-08-19T03:41:26.055Z,98883.85
2022-08-19T03:42:38.643Z,98886.00
2022-08-19T03:43:11.395Z,98886.04
2022-08-19T03:43:48.066Z,98884.81
2022-08-19T03:44:23.581Z,98882.77
2022-08-19T03:44:56.892Z,98881.70
2022-08-19T03:45:30.425Z,98880.71
2022-08-19T03:46:06.553Z,98879.34
2022-08-19T03:46:39.777Z,98879.67
2022-08-19T03:47:18.141Z,98879.02
2022-08-19T03:47:51.282Z,98877.23
2022-08-19T03:48:24.962Z,98878.20
2022-08-19T03:49:00.464Z,98875.88
2022-08-19T03:49:36.875Z,98874.88
2022-08-19T03:50:10.548Z,98876.70
2022-08-19T03:50:44.621Z,98879.91
2022-08-19T03:51:30.706Z,98877.81
2022-08-19T03:52:08.608Z,98879.48
2022-08-19T03:52:45.438Z,98881.77
2022-08-19T03:53:20.213Z,98880.22
2022-08-19T03:53:56.019Z,98881.98
2022-08-19T03:54:30.250Z,98885.41
2022-08-19T03:55:04.558Z,98884.00
2022-08-19T03:55:42.558Z,98887.09
2022-08-19T03:56:16.604Z,98884.89
2022-08-19T03:56:51.975Z,98888.30
2022-08-19T03:57:25.159Z,98892.41
2022-08-19T03:58:05.544Z,98892.95
2022-08-19T03:58:38.956Z,98891.40
2022-08-19T03:59:23.648Z,98892.41
2022-08-19T03:59:56.786Z,98892.91
2022-08-19T04:00:46.994Z,98893.73
2022-08-19T04:01:34.890Z,98894.02
2022-08-19T04:02:12.196Z,98893.92
2022-08-19T04:02:56.513Z,98893.05
2022-08-19T04:03:31.948Z,98892.00
2022-08-19T04:04:05.767Z,98891.92
2022-08-19T04:04:41.511Z,98893.33
2022-08-19T04:05:15.691Z,98894.79
2022-08-19T04:05:48.918Z,98892.67
2022-08-19T04:06:25.441Z,98895.08
2022-08-19T04:06:58.657Z,98895.18
2022-08-19T04:07:31.853Z,98898.40
2022-08-19T04:08:09.702Z,98896.97
2022-08-19T04:08:47.396Z,98897.85
2022-08-19T04:09:21.795Z,98894.64
2022-08-19T04:09:55.083Z,98898.93
2022-08-19T04:10:29.922Z,98900.67
2022-08-19T04:11:07.853Z,98899.34
2022-08-19T04:11:45.155Z,98898.08
2022-08-19T04:12:18.725Z,98898.09
2022-08-19T04:12:52.071Z,98896.94
2022-08-19T04:13:25.316Z,98896.57
2022-08-19T04:13:58.714Z,98901.38
2022-08-19T04:14:32.900Z,98897.05
2022-08-19T04:15:07.331Z,98895.67
2022-08-19T04:15:44.750Z,98896.16
2022-08-19T04:16:21.074Z,98896.30
2022-08-19T04:17:06.142Z,98894.77
2022-08-19T04:17:39.327Z,98894.81
2022-08-19T04:18:12.629Z,98893.42
2022-08-19T04:18:46.018Z,98893.45
2022-08-19T04:19:20.391Z,98886.48
2022-08-19T04:19:53.609Z,98889.77
2022-08-19T04:20:27.328Z,98888.01
2022-08-19T04:21:02.077Z,98891.48
2022-08-19T04:21:35.811Z,98887.55
2022-08-19T04:22:09.076Z,98889.27
2022-08-19T04:22:42.400Z,98889.23
2022-08-19T04:23:16.292Z,98885.68
2022-08-19T04:23:50.064Z,98891.19
2022-08-19T04:24:26.377Z,98891.77
2022-08-19T04:24:59.646Z,98891.79
2022-08-19T04:25:38.497Z,98891.96
2022-08-19T04:26:35.096Z,98892.84
2022-08-19T04:27:08.339Z,98892.20
2022-08-19T04:27:48.064Z,98891.35
2022-08-19T04:28:21.174Z,98894.08
2022-08-19T04:28:54.956Z,98895.86
2022-08-19T04:29:28.807Z,98899.96
2022-08-19T04:30:02.028Z,98897.96
2022-08-19T04:31:01.221Z,98896.38
2022-08-19T04:31:36.975Z,98893.21
2022-08-19T04:32:10.240Z,98896.66
2022-08-19T04:32:44.944Z,98900.15
2022-08-19T04:33:23.995Z,98894.88
2022-08-19T04:34:02.707Z,98892.65
2022-08-19T04:34:35.977Z,98896.65
2022-08-19T04:35:17.473Z,98893.85
2022-08-19T04:35:54.000Z,98893.45
2022-08-19T04:36:34.281Z,98893.34
2022-08-19T04:37:14.466Z,98893.92
2022-08-19T04:37:47.800Z,98887.30
2022-08-19T04:38:25.840Z,98890.29
2022-08-19T04:39:02.131Z,98885.05
2022-08-19T04:39:54.108Z,98884.33
2022-08-19T04:40:52.399Z,98882.46
2022-08-19T04:41:45.450Z,98882.95
2022-08-19T04:42:39.021Z,98884.15
2022-08-19T04:43:15.152Z,98888.16
2022-08-19T04:43:51.731Z,98889.81
2022-08-19T04:44:25.208Z,98890.26
2022-08-19T04:45:00.026Z,98892.58
2022-08-19T04:45:39.460Z,98896.47
2022-08-19T04:46:37.534Z,98899.05
2022-08-19T04:47:11.174Z,98897.94
2022-08-19T04:47:47.072Z,98901.52
2022-08-19T04:48:28.138Z,98905.95
2022-08-19T04:49:10.343Z,98902.66
2022-08-19T04:49:43.827Z,98904.67
2022-08-19T04:50:17.108Z,98904.94
2022-08-19T04:50:50.410Z,98905.00
2022-08-19T04:51:24.312Z,98901.15
2022-08-19T04:51:57.457Z,98904.71
2022-08-19T04:52:33.424Z,98902.06
2022-08-19T04:53:06.509Z,98902.09
2022-08-19T04:53:43.540Z,98899.65
2022-08-19T04:54:37.248Z,98899.66
2022-08-19T04:55:13.824Z,98897.38
2022-08-19T04:55:46.886Z,98897.05
2022-08-19T04:56:27.337Z,98896.73
2022-08-19T04:57:00.520Z,98895.50
2022-08-19T04:57:33.599Z,98895.16
2022-08-19T04:58:07.880Z,98897.73
2022-08-19T04:58:43.779Z,98897.05
2022-08-19T04:59:19.989Z,98894.77
2022-08-19T04:59:57.331Z,98897.19
2022-08-19T05:00:30.579Z,98898.74
2022-08-19T05:01:05.206Z,98897.95
2022-08-19T05:01:38.464Z,98897.50
2022-08-19T05:02:11.736Z,98900.38
2022-08-19T05:02:44.855Z,98898.76
2022-08-19T05:03:18.615Z,98898.50
2022-08-19T05:03:51.868Z,98897.11
2022-08-19T05:04:24.909Z,98899.65
2022-08-19T05:05:00.860Z,98896.24
2022-08-19T05:05:45.083Z,98896.98
2022-08-19T05:06:21.073Z,98897.55
2022-08-19T05:07:00.913Z,98895.52
2022-08-19T05:07:35.408Z,98899.91
2022-08-19T05:08:09.004Z,98896.99
2022-08-19T05:08:44.606Z,98898.55
2022-08-19T05:09:18.215Z,98903.23
2022-08-19T05:09:58.323Z,98899.65
2022-08-19T05:10:32.434Z,98903.71
2022-08-19T05:11:15.711Z,98902.24
2022-08-19T05:11:54.140Z,98905.87
2022-08-19T05:12:30.003Z,98904.40
2022-08-19T05:13:03.915Z,98903.71
2022-08-19T05:13:37.039Z,98904.85
2022-08-19T05:14:14.219Z,98903.70
2022-08-19T05:14:48.512Z,98909.00
2022-08-19T05:15:21.718Z,98909.21
2022-08-19T05:15:58.348Z,98908.69
2022-08-19T05:16:32.725Z,98908.11
2022-08-19T05:17:26.112Z,98904.70
2022-08-19T05:18:18.190Z,98904.98
2022-08-19T05:19:13.779Z,98908.39
2022-08-19T05:20:25.790Z,98909.10
2022-08-19T05:21:17.597Z,98912.63
2022-08-19T05:22:09.776Z,98911.58
2022-08-19T05:22:46.586Z,98913.16
2022-08-19T05:23:22.794Z,98915.52
2022-08-19T05:23:56.432Z,98917.08
2022-08-19T05:24:30.631Z,98917.95
2022-08-19T05:25:16.368Z,98914.59
2022-08-19T05:25:49.757Z,98918.72
2022-08-19T05:26:23.128Z,98921.77
2022-08-19T05:27:00.352Z,98919.70
2022-08-19T05:27:34.013Z,98920.67
2022-08-19T05:28:07.096Z,98923.66
2022-08-19T05:28:40.492Z,98923.20
2022-08-19T05:29:16.828Z,98925.55
2022-08-19T05:29:49.944Z,98928.71
2022-08-19T05:30:30.241Z,98925.72
2022-08-19T05:31:15.728Z,98929.70
2022-08-19T05:31:53.121Z,98931.42
2022-08-19T05:32:26.423Z,98931.25
2022-08-19T05:32:59.725Z,98931.48
2022-08-19T05:33:32.897Z,98931.10
2022-08-19T05:34:07.417Z,98932.03
2022-08-19T05:34:53.748Z,98933.05
2022-08-19T05:35:27.031Z,98934.88
2022-08-19T05:36:00.511Z,98936.34
2022-08-19T05:36:44.421Z,98936.45
2022-08-19T05:37:18.363Z,98941.54
2022-08-19T05:37:52.694Z,98936.51
2022-08-19T05:38:32.182Z,98938.94
2022-08-19T05:39:05.765Z,98937.17
2022-08-19T05:39:39.559Z,98937.81
2022-08-19T05:40:12.927Z,98941.35
2022-08-19T05:40:48.268Z,98941.30
2022-08-19T05:41:24.505Z,98939.66
2022-08-19T05:42:00.665Z,98943.24
2022-08-19T05:42:33.770Z,98944.41
2022-08-19T05:43:09.254Z,98945.05
2022-08-19T05:43:42.968Z,98943.34
2022-08-19T05:44:18.027Z,98946.20
2022-08-19T05:44:52.391Z,98944.21
2022-08-19T05:45:26.087Z,98944.77
2022-08-19T05:45:59.637Z,98939.73
2022-08-19T05:46:33.600Z,98943.23
2022-08-19T05:47:09.702Z,98942.42
2022-08-19T05:47:42.850Z,98945.16
2022-08-19T05:48:16.131Z,98944.84
2022-08-19T05:48:49.889Z,98943.84
2022-08-19T05:49:28.483Z,98941.55
2022-08-19T05:50:05.032Z,98940.16
2022-08-19T05:50:40.652Z,98938.19
2022-08-19T05:51:14.601Z,98938.19
2022-08-19T05:51:51.235Z,98941.55
2022-08-19T05:52:25.893Z,98938.79
2022-08-19T05:52:59.931Z,98937.81
2022-08-19T05:53:34.924Z,98937.71
2022-08-19T05:54:14.627Z,98936.91
2022-08-19T05:54:51.445Z,98935.23
2022-08-19T05:55:25.134Z,98941.20
2022-08-19T05:55:58.404Z,98941.42
2022-08-19T05:56:32.970Z,98939.76
2022-08-19T05:57:06.275Z,98943.52
2022-08-19T05:57:39.767Z,98938.59
2022-08-19T05:58:13.012Z,98939.98
2022-08-19T05:58:46.755Z,98939.55
2022-08-19T05:59:22.684Z,98939.17
2022-08-19T06:00:01.486Z,98940.99
2022-08-19T06:00:36.039Z,98941.14
2022-08-19T06:01:17.711Z,98940.49
2022-08-19T06:01:52.816Z,98941.64
2022-08-19T06:02:29.929Z,98942.31
2022-08-19T06:03:11.866Z,98938.63
2022-08-19T06:03:48.917Z,98940.16
2022-08-19T06:04:23.330Z,98940.81
2022-08-19T06:04:56.704Z,98939.86
2022-08-19T06:05:31.554Z,98937.82
2022-08-19T06:06:06.668Z,98939.80
2022-08-19T06:06:40.429Z,98936.27
2022-08-19T06:07:14.080Z,98936.52
2022-08-19T06:07:48.311Z,98934.71
2022-08-19T06:08:33.490Z,98935.14
2022-08-19T06:09:09.183Z,98935.73
2022-08-19T06:09:59.047Z,98934.27
2022-08-19T06:10:34.813Z,98936.25
2022-08-19T06:11:55.995Z,98936.84
2022-08-19T06:12:33.000Z,98934.69
2022-08-19T06:13:07.126Z,98932.88
2022-08-19T06:13:40.385Z,98932.34
2022-08-19T06:14:18.366Z,98934.63
2022-08-19T06:14:56.036Z,98937.05
2022-08-19T06:15:34.995Z,98930.16
2022-08-19T06:16:08.624Z,98928.83
2022-08-19T06:16:43.507Z,98925.61
2022-08-19T06:17:17.282Z,98926.41
2022-08-19T06:17:52.450Z,98926.52
2022-08-19T06:18:25.954Z,98925.66
2022-08-19T06:19:01.879Z,98923.27
2022-08-19T06:19:41.057Z,98921.90
2022-08-19T06:20:16.230Z,98924.40
2022-08-19T06:20:55.993Z,98921.83
2022-08-19T06:21:31.361Z,98921.14
2022-08-19T06:22:05.907Z,98922.17
2022-08-19T06:22:44.339Z,98921.88
2022-08-19T06:23:17.919Z,98923.48
2022-08-19T06:23:53.361Z,98919.94
2022-08-19T06:24:29.073Z,98922.88
2022-08-19T06:25:02.682Z,98920.67
2022-08-19T06:25:37.206Z,98921.67
2022-08-19T06:26:13.797Z,98919.37
2022-08-19T06:27:27.629Z,98920.56
2022-08-19T06:28:16.270Z,98917.57
2022-08-19T06:28:50.156Z,98916.05
2022-08-19T06:29:25.608Z,98917.77
2022-08-19T06:29:58.869Z,98921.47
2022-08-19T06:30:32.256Z,98921.76
2022-08-19T06:31:08.710Z,98921.71
2022-08-19T06:31:45.596Z,98922.40
2022-08-19T06:32:20.486Z,98923.64
2022-08-19T06:32:53.781Z,98922.99
2022-08-19T06:33:27.198Z,98924.17
2022-08-19T06:34:05.104Z,98926.04
2022-08-19T06:34:38.378Z,98926.36
2022-08-19T06:35:12.517Z,98924.39
2022-08-19T06:36:37.389Z,98924.59
2022-08-19T06:37:10.661Z,98928.17
2022-08-19T06:37:44.228Z,98921.21
2022-08-19T06:38:17.412Z,98924.29
2022-08-19T06:38:50.712Z,98923.49
2022-08-19T06:39:26.812Z,98923.25
2022-08-19T06:40:00.404Z,98920.67
2022-08-19T06:40:33.701Z,98920.83
2022-08-19T06:41:08.127Z,98915.94
2022-08-19T06:41:49.364Z,98915.77
2022-08-19T06:42:25.210Z,98916.41
2022-08-19T06:43:01.267Z,98913.72
2022-08-19T06:43:41.223Z,98916.60
2022-08-19T06:44:16.589Z,98912.63
2022-08-19T06:44:53.586Z,98909.39
2022-08-19T06:45:35.507Z,98913.15
2022-08-19T06:46:15.049Z,98909.17
2022-08-19T06:46:53.582Z,98907.88
2022-08-19T06:47:29.071Z,98909.47
2022-08-19T06:48:02.634Z,98913.25
2022-08-19T06:48:44.952Z,98912.05
2022-08-19T06:49:19.532Z,98910.17
2022-08-19T06:50:02.918Z,98911.48
2022-08-19T06:50:36.762Z,98910.63
2022-08-19T06:51:16.842Z,98910.78
2022-08-19T06:51:52.610Z,98911.08
2022-08-19T06:52:25.820Z,98909.41
2022-08-19T06:53:03.593Z,98909.92
2022-08-19T06:53:38.271Z,98910.93
2022-08-19T06:54:19.001Z,98911.61
2022-08-19T06:54:55.763Z,98912.98
2022-08-19T06:55:31.509Z,98909.61
2022-08-19T06:56:06.895Z,98909.31
2022-08-19T06:56:40.243Z,98906.24
2022-08-19T06:57:16.301Z,98910.38
2022-08-19T06:57:52.269Z,98913.27
2022-08-19T06:58:25.628Z,98911.48
2022-08-19T06:58:59.968Z,98913.71
2022-08-19T06:59:36.333Z,98912.99
2022-08-19T07:00:15.041Z,98916.90
2022-08-19T07:00:48.200Z,98915.02
2022-08-19T07:01:21.756Z,98915.04
2022-08-19T07:01:57.973Z,98919.14
2022-08-19T07:02:31.442Z,98916.17
2022-08-19T07:03:08.240Z,98921.13
2022-08-19T07:03:42.098Z,98921.31
2022-08-19T07:04:17.781Z,98921.45
2022-08-19T07:04:52.827Z,98918.81
2022-08-19T07:05:26.421Z,98922.65
2022-08-19T07:06:09.815Z,98923.98
2022-08-19T07:06:55.060Z,98925.06
2022-08-19T07:07:28.661Z,98928.65
2022-08-19T07:08:04.964Z,98926.48
2022-08-19T07:08:42.373Z,98929.09
2022-08-19T07:09:19.424Z,98930.79
2022-08-19T07:09:59.974Z,98932.32
2022-08-19T07:10:36.449Z,98935.45
2022-08-19T07:11:11.763Z,98936.25
2022-08-19T07:11:50.418Z,98934.25
2022-08-19T07:12:23.748Z,98935.97
2022-08-19T07:12:57.261Z,98936.64
2022-08-19T07:13:30.785Z,98935.02
2022-08-19T07:14:04.264Z,98936.63
2022-08-19T07:14:38.877Z,98934.47
2022-08-19T07:15:13.974Z,98932.99
2022-08-19T07:15:48.204Z,98933.14
2022-08-19T07:16:29.131Z,98933.94
2022-08-19T07:17:03.144Z,98930.04
2022-08-19T07:17:39.141Z,98936.14
2022-08-19T07:18:12.474Z,98934.73
2022-08-19T07:18:45.667Z,98938.15
2022-08-19T07:19:21.356Z,98934.10